sensor_id;sensor_type;location;lat;lon;timestamp;P1;durP1;ratioP1;P2;durP2;ratioP2
64674;SDS011;51090;51.512;11.332;2022-07-31T00:01:30;5.90;;;3.25;;
64674;SDS011;51090;51.512;11.332;2022-07-31T00:03:56;8.05;;;3.33;;
64674;SDS011;51090;51.512;11.332;2022-07-31T00:06:22;4.50;;;3.20;;
64674;SDS011;51090;51.512;11.332;2022-07-31T00:08:48;5.28;;;3.50;;
64674;SDS011;51090;51.512;11.332;2022-07-31T00:11:14;7.05;;;3.05;;
64674;SDS011;51090;51.512;11.332;2022-07-31T00:13:41;6.75;;;3.63;;
64674;SDS011;51090;51.512;11.332;2022-07-31T00:16:07;5.97;;;3.65;;
64674;SDS011;51090;51.512;11.332;2022-07-31T00:18:33;7.68;;;3.25;;
64674;SDS011;51090;51.512;11.332;2022-07-31T00:21:00;5.97;;;3.22;;
64674;SDS011;51090;51.512;11.332;2022-07-31T00:23:26;7.40;;;3.65;;
64674;SDS011;51090;51.512;11.332;2022-07-31T00:25:53;7.18;;;3.08;;
64674;SDS011;51090;51.512;11.332;2022-07-31T00:28:20;5.10;;;3.10;;
64674;SDS011;51090;51.512;11.332;2022-07-31T00:30:46;4.85;;;2.63;;
64674;SDS011;51090;51.512;11.332;2022-07-31T00:33:12;5.05;;;3.00;;
64674;SDS011;51090;51.512;11.332;2022-07-31T00:35:38;5.80;;;3.80;;
64674;SDS011;51090;51.512;11.332;2022-07-31T00:38:04;7.82;;;3.40;;
64674;SDS011;51090;51.512;11.332;2022-07-31T00:40:30;6.35;;;3.45;;
64674;SDS011;51090;51.512;11.332;2022-07-31T00:42:56;6.32;;;4.03;;
64674;SDS011;51090;51.512;11.332;2022-07-31T00:45:22;8.57;;;4.05;;
64674;SDS011;51090;51.512;11.332;2022-07-31T00:47:48;6.43;;;3.53;;
64674;SDS011;51090;51.512;11.332;2022-07-31T00:50:14;5.63;;;4.13;;
64674;SDS011;51090;51.512;11.332;2022-07-31T00:52:40;5.05;;;3.42;;
64674;SDS011;51090;51.512;11.332;2022-07-31T00:55:06;8.88;;;3.40;;
64674;SDS011;51090;51.512;11.332;2022-07-31T00:57:33;8.35;;;3.55;;
64674;SDS011;51090;51.512;11.332;2022-07-31T00:59:59;6.95;;;3.25;;
64674;SDS011;51090;51.512;11.332;2022-07-31T01:02:25;4.18;;;2.97;;
64674;SDS011;51090;51.512;11.332;2022-07-31T01:04:51;7.43;;;3.45;;
64674;SDS011;51090;51.512;11.332;2022-07-31T01:07:17;5.60;;;2.92;;
64674;SDS011;51090;51.512;11.332;2022-07-31T01:09:44;4.47;;;3.20;;
64674;SDS011;51090;51.512;11.332;2022-07-31T01:12:14;6.30;;;3.47;;
64674;SDS011;51090;51.512;11.332;2022-07-31T01:14:56;8.00;;;3.40;;
64674;SDS011;51090;51.512;11.332;2022-07-31T01:17:26;5.82;;;3.40;;
64674;SDS011;51090;51.512;11.332;2022-07-31T01:19:55;6.85;;;3.15;;
64674;SDS011;51090;51.512;11.332;2022-07-31T01:25:16;7.05;;;3.50;;
64674;SDS011;51090;51.512;11.332;2022-07-31T01:31:05;4.57;;;3.47;;
64674;SDS011;51090;51.512;11.332;2022-07-31T01:33:58;5.40;;;3.67;;
64674;SDS011;51090;51.512;11.332;2022-07-31T01:36:43;6.65;;;3.50;;
64674;SDS011;51090;51.512;11.332;2022-07-31T01:39:16;6.88;;;3.03;;
64674;SDS011;51090;51.512;11.332;2022-07-31T01:41:43;7.55;;;3.63;;
64674;SDS011;51090;51.512;11.332;2022-07-31T01:44:12;8.98;;;3.15;;
64674;SDS011;51090;51.512;11.332;2022-07-31T01:46:42;6.20;;;3.80;;
64674;SDS011;51090;51.512;11.332;2022-07-31T01:49:09;10.77;;;3.55;;
64674;SDS011;51090;51.512;11.332;2022-07-31T01:51:36;5.30;;;3.15;;
64674;SDS011;51090;51.512;11.332;2022-07-31T01:54:05;7.75;;;4.00;;
64674;SDS011;51090;51.512;11.332;2022-07-31T01:56:32;8.73;;;3.35;;
64674;SDS011;51090;51.512;11.332;2022-07-31T01:59:00;4.53;;;3.33;;
64674;SDS011;51090;51.512;11.332;2022-07-31T02:01:28;9.38;;;3.90;;
64674;SDS011;51090;51.512;11.332;2022-07-31T02:03:56;5.22;;;3.17;;
64674;SDS011;51090;51.512;11.332;2022-07-31T02:06:23;6.60;;;3.35;;
64674;SDS011;51090;51.512;11.332;2022-07-31T02:08:50;5.40;;;3.00;;
64674;SDS011;51090;51.512;11.332;2022-07-31T02:11:18;5.63;;;3.20;;
64674;SDS011;51090;51.512;11.332;2022-07-31T02:13:45;8.57;;;4.15;;
64674;SDS011;51090;51.512;11.332;2022-07-31T02:16:13;5.70;;;3.67;;
64674;SDS011;51090;51.512;11.332;2022-07-31T02:18:41;9.35;;;4.95;;
64674;SDS011;51090;51.512;11.332;2022-07-31T02:21:08;8.50;;;3.70;;
64674;SDS011;51090;51.512;11.332;2022-07-31T02:23:35;6.85;;;4.22;;
64674;SDS011;51090;51.512;11.332;2022-07-31T02:26:01;8.45;;;3.63;;
64674;SDS011;51090;51.512;11.332;2022-07-31T02:28:28;6.40;;;3.10;;
64674;SDS011;51090;51.512;11.332;2022-07-31T02:30:56;5.63;;;3.67;;
64674;SDS011;51090;51.512;11.332;2022-07-31T02:33:23;6.32;;;3.70;;
64674;SDS011;51090;51.512;11.332;2022-07-31T02:35:53;10.80;;;4.05;;
64674;SDS011;51090;51.512;11.332;2022-07-31T02:38:22;10.23;;;3.70;;
64674;SDS011;51090;51.512;11.332;2022-07-31T02:40:52;7.43;;;3.58;;
64674;SDS011;51090;51.512;11.332;2022-07-31T02:43:21;7.18;;;4.07;;
64674;SDS011;51090;51.512;11.332;2022-07-31T02:45:49;7.50;;;4.00;;
64674;SDS011;51090;51.512;11.332;2022-07-31T02:48:15;8.55;;;3.78;;
64674;SDS011;51090;51.512;11.332;2022-07-31T02:50:42;4.65;;;3.35;;
64674;SDS011;51090;51.512;11.332;2022-07-31T02:53:08;7.75;;;3.85;;
64674;SDS011;51090;51.512;11.332;2022-07-31T02:55:35;5.38;;;3.85;;
64674;SDS011;51090;51.512;11.332;2022-07-31T02:58:02;8.30;;;3.97;;
64674;SDS011;51090;51.512;11.332;2022-07-31T03:00:28;6.35;;;4.30;;
64674;SDS011;51090;51.512;11.332;2022-07-31T03:02:55;6.35;;;4.30;;
64674;SDS011;51090;51.512;11.332;2022-07-31T03:05:22;6.47;;;4.05;;
64674;SDS011;51090;51.512;11.332;2022-07-31T03:07:48;10.15;;;4.13;;
64674;SDS011;51090;51.512;11.332;2022-07-31T03:10:14;5.00;;;3.88;;
64674;SDS011;51090;51.512;11.332;2022-07-31T03:12:47;7.90;;;3.90;;
64674;SDS011;51090;51.512;11.332;2022-07-31T03:15:17;7.55;;;4.10;;
64674;SDS011;51090;51.512;11.332;2022-07-31T03:17:47;6.22;;;3.90;;
64674;SDS011;51090;51.512;11.332;2022-07-31T03:20:14;6.78;;;4.10;;
64674;SDS011;51090;51.512;11.332;2022-07-31T03:22:41;7.72;;;3.80;;
64674;SDS011;51090;51.512;11.332;2022-07-31T03:25:08;5.90;;;4.07;;
64674;SDS011;51090;51.512;11.332;2022-07-31T03:27:35;5.40;;;3.47;;
64674;SDS011;51090;51.512;11.332;2022-07-31T03:30:02;7.65;;;4.20;;
64674;SDS011;51090;51.512;11.332;2022-07-31T03:32:29;9.63;;;4.82;;
64674;SDS011;51090;51.512;11.332;2022-07-31T03:34:55;7.22;;;3.90;;
64674;SDS011;51090;51.512;11.332;2022-07-31T03:37:21;4.93;;;3.60;;
64674;SDS011;51090;51.512;11.332;2022-07-31T03:39:47;6.57;;;4.10;;
64674;SDS011;51090;51.512;11.332;2022-07-31T03:42:13;5.80;;;4.60;;
64674;SDS011;51090;51.512;11.332;2022-07-31T03:44:39;7.93;;;4.43;;
64674;SDS011;51090;51.512;11.332;2022-07-31T03:47:07;7.65;;;4.72;;
64674;SDS011;51090;51.512;11.332;2022-07-31T03:49:33;6.75;;;4.53;;
64674;SDS011;51090;51.512;11.332;2022-07-31T03:51:59;6.80;;;4.93;;
64674;SDS011;51090;51.512;11.332;2022-07-31T03:54:26;6.03;;;4.43;;
64674;SDS011;51090;51.512;11.332;2022-07-31T03:56:52;8.55;;;5.20;;
64674;SDS011;51090;51.512;11.332;2022-07-31T03:59:21;9.07;;;4.50;;
64674;SDS011;51090;51.512;11.332;2022-07-31T04:01:47;6.88;;;4.25;;
64674;SDS011;51090;51.512;11.332;2022-07-31T04:04:16;5.75;;;4.68;;
64674;SDS011;51090;51.512;11.332;2022-07-31T04:06:42;7.85;;;4.72;;
64674;SDS011;51090;51.512;11.332;2022-07-31T04:09:08;5.78;;;4.57;;
64674;SDS011;51090;51.512;11.332;2022-07-31T04:11:34;7.82;;;5.07;;
64674;SDS011;51090;51.512;11.332;2022-07-31T04:14:00;6.75;;;5.25;;
64674;SDS011;51090;51.512;11.332;2022-07-31T04:16:26;5.43;;;4.68;;
64674;SDS011;51090;51.512;11.332;2022-07-31T04:18:52;7.88;;;4.57;;
64674;SDS011;51090;51.512;11.332;2022-07-31T04:21:19;6.57;;;4.85;;
64674;SDS011;51090;51.512;11.332;2022-07-31T04:23:45;6.38;;;4.82;;
64674;SDS011;51090;51.512;11.332;2022-07-31T04:26:11;7.85;;;4.45;;
64674;SDS011;51090;51.512;11.332;2022-07-31T04:28:37;7.10;;;4.43;;
64674;SDS011;51090;51.512;11.332;2022-07-31T04:31:03;6.85;;;5.18;;
64674;SDS011;51090;51.512;11.332;2022-07-31T04:33:29;7.55;;;4.68;;
64674;SDS011;51090;51.512;11.332;2022-07-31T04:35:55;10.13;;;5.30;;
64674;SDS011;51090;51.512;11.332;2022-07-31T04:38:21;7.95;;;5.25;;
64674;SDS011;51090;51.512;11.332;2022-07-31T04:40:47;7.50;;;5.60;;
64674;SDS011;51090;51.512;11.332;2022-07-31T04:43:13;6.70;;;4.95;;
64674;SDS011;51090;51.512;11.332;2022-07-31T04:45:40;6.55;;;4.60;;
64674;SDS011;51090;51.512;11.332;2022-07-31T04:48:07;9.15;;;4.90;;
64674;SDS011;51090;51.512;11.332;2022-07-31T04:50:34;12.05;;;6.18;;
64674;SDS011;51090;51.512;11.332;2022-07-31T04:53:01;9.13;;;5.85;;
64674;SDS011;51090;51.512;11.332;2022-07-31T04:55:28;6.88;;;4.80;;
64674;SDS011;51090;51.512;11.332;2022-07-31T04:57:54;10.73;;;4.97;;
64674;SDS011;51090;51.512;11.332;2022-07-31T05:00:20;7.55;;;5.50;;
64674;SDS011;51090;51.512;11.332;2022-07-31T05:02:46;6.20;;;5.28;;
64674;SDS011;51090;51.512;11.332;2022-07-31T05:05:12;7.15;;;5.90;;
64674;SDS011;51090;51.512;11.332;2022-07-31T05:07:38;6.85;;;5.03;;
64674;SDS011;51090;51.512;11.332;2022-07-31T05:10:04;7.63;;;5.10;;
64674;SDS011;51090;51.512;11.332;2022-07-31T05:12:30;7.53;;;5.22;;
64674;SDS011;51090;51.512;11.332;2022-07-31T05:14:56;6.93;;;4.82;;
64674;SDS011;51090;51.512;11.332;2022-07-31T05:17:23;7.00;;;4.55;;
64674;SDS011;51090;51.512;11.332;2022-07-31T05:19:49;8.88;;;5.28;;
64674;SDS011;51090;51.512;11.332;2022-07-31T05:22:15;7.60;;;5.22;;
64674;SDS011;51090;51.512;11.332;2022-07-31T05:24:41;5.95;;;5.00;;
64674;SDS011;51090;51.512;11.332;2022-07-31T05:27:07;7.32;;;5.00;;
64674;SDS011;51090;51.512;11.332;2022-07-31T05:29:33;7.60;;;5.68;;
64674;SDS011;51090;51.512;11.332;2022-07-31T05:31:59;7.95;;;5.47;;
64674;SDS011;51090;51.512;11.332;2022-07-31T05:34:25;8.98;;;5.93;;
64674;SDS011;51090;51.512;11.332;2022-07-31T05:36:53;9.27;;;5.30;;
64674;SDS011;51090;51.512;11.332;2022-07-31T05:39:19;6.72;;;5.15;;
64674;SDS011;51090;51.512;11.332;2022-07-31T05:41:45;11.23;;;6.35;;
64674;SDS011;51090;51.512;11.332;2022-07-31T05:44:13;8.52;;;6.10;;
64674;SDS011;51090;51.512;11.332;2022-07-31T05:46:39;8.43;;;5.63;;
64674;SDS011;51090;51.512;11.332;2022-07-31T05:49:05;8.45;;;5.88;;
64674;SDS011;51090;51.512;11.332;2022-07-31T05:51:31;9.15;;;5.97;;
64674;SDS011;51090;51.512;11.332;2022-07-31T05:53:57;8.48;;;5.78;;
64674;SDS011;51090;51.512;11.332;2022-07-31T05:56:23;14.23;;;6.05;;
64674;SDS011;51090;51.512;11.332;2022-07-31T05:58:51;6.97;;;5.43;;
64674;SDS011;51090;51.512;11.332;2022-07-31T06:01:17;7.60;;;5.35;;
64674;SDS011;51090;51.512;11.332;2022-07-31T06:03:43;9.75;;;6.18;;
64674;SDS011;51090;51.512;11.332;2022-07-31T06:06:09;6.45;;;5.72;;
64674;SDS011;51090;51.512;11.332;2022-07-31T06:08:35;9.88;;;6.70;;
64674;SDS011;51090;51.512;11.332;2022-07-31T06:11:01;7.72;;;6.63;;
64674;SDS011;51090;51.512;11.332;2022-07-31T06:13:28;9.25;;;7.05;;
64674;SDS011;51090;51.512;11.332;2022-07-31T06:15:54;9.80;;;6.82;;
64674;SDS011;51090;51.512;11.332;2022-07-31T06:18:20;10.90;;;6.78;;
64674;SDS011;51090;51.512;11.332;2022-07-31T06:20:46;34.50;;;22.70;;
64674;SDS011;51090;51.512;11.332;2022-07-31T06:23:13;13.95;;;9.15;;
64674;SDS011;51090;51.512;11.332;2022-07-31T06:25:39;9.30;;;8.05;;
64674;SDS011;51090;51.512;11.332;2022-07-31T06:28:05;14.05;;;8.93;;
64674;SDS011;51090;51.512;11.332;2022-07-31T06:30:31;9.68;;;8.32;;
64674;SDS011;51090;51.512;11.332;2022-07-31T06:32:57;12.55;;;9.23;;
64674;SDS011;51090;51.512;11.332;2022-07-31T06:35:23;10.55;;;8.60;;
64674;SDS011;51090;51.512;11.332;2022-07-31T06:37:49;14.00;;;10.40;;
64674;SDS011;51090;51.512;11.332;2022-07-31T06:40:15;12.98;;;10.02;;
64674;SDS011;51090;51.512;11.332;2022-07-31T06:42:41;13.65;;;9.52;;
64674;SDS011;51090;51.512;11.332;2022-07-31T06:45:09;15.48;;;10.27;;
64674;SDS011;51090;51.512;11.332;2022-07-31T06:47:35;24.88;;;17.42;;
64674;SDS011;51090;51.512;11.332;2022-07-31T06:50:02;12.38;;;9.68;;
64674;SDS011;51090;51.512;11.332;2022-07-31T06:52:30;27.50;;;20.67;;
64674;SDS011;51090;51.512;11.332;2022-07-31T06:54:56;21.20;;;16.67;;
64674;SDS011;51090;51.512;11.332;2022-07-31T06:57:22;20.17;;;14.63;;
64674;SDS011;51090;51.512;11.332;2022-07-31T06:59:48;14.38;;;11.82;;
64674;SDS011;51090;51.512;11.332;2022-07-31T07:02:14;14.15;;;11.07;;
64674;SDS011;51090;51.512;11.332;2022-07-31T07:04:40;14.38;;;10.98;;
64674;SDS011;51090;51.512;11.332;2022-07-31T07:07:06;13.50;;;10.82;;
64674;SDS011;51090;51.512;11.332;2022-07-31T07:09:32;13.40;;;9.68;;
64674;SDS011;51090;51.512;11.332;2022-07-31T07:11:58;23.10;;;16.27;;
64674;SDS011;51090;51.512;11.332;2022-07-31T07:14:24;16.65;;;12.73;;
64674;SDS011;51090;51.512;11.332;2022-07-31T07:16:50;29.13;;;17.48;;
64674;SDS011;51090;51.512;11.332;2022-07-31T07:19:16;24.23;;;16.77;;
64674;SDS011;51090;51.512;11.332;2022-07-31T07:21:43;16.92;;;13.25;;
64674;SDS011;51090;51.512;11.332;2022-07-31T07:24:09;17.00;;;13.35;;
64674;SDS011;51090;51.512;11.332;2022-07-31T07:26:35;15.13;;;12.60;;
64674;SDS011;51090;51.512;11.332;2022-07-31T07:29:01;18.75;;;12.35;;
64674;SDS011;51090;51.512;11.332;2022-07-31T07:31:27;13.30;;;10.98;;
64674;SDS011;51090;51.512;11.332;2022-07-31T07:33:53;14.27;;;10.35;;
64674;SDS011;51090;51.512;11.332;2022-07-31T07:36:20;11.98;;;9.95;;
64674;SDS011;51090;51.512;11.332;2022-07-31T07:38:46;13.38;;;11.07;;
64674;SDS011;51090;51.512;11.332;2022-07-31T07:41:12;15.00;;;10.98;;
64674;SDS011;51090;51.512;11.332;2022-07-31T07:43:39;14.38;;;10.57;;
64674;SDS011;51090;51.512;11.332;2022-07-31T07:46:05;14.25;;;10.65;;
64674;SDS011;51090;51.512;11.332;2022-07-31T07:48:31;14.32;;;10.25;;
64674;SDS011;51090;51.512;11.332;2022-07-31T07:50:57;10.98;;;9.25;;
64674;SDS011;51090;51.512;11.332;2022-07-31T07:53:23;12.60;;;9.02;;
64674;SDS011;51090;51.512;11.332;2022-07-31T07:55:49;11.30;;;8.57;;
64674;SDS011;51090;51.512;11.332;2022-07-31T07:58:15;10.57;;;9.32;;
64674;SDS011;51090;51.512;11.332;2022-07-31T08:00:41;10.70;;;8.45;;
64674;SDS011;51090;51.512;11.332;2022-07-31T08:03:07;8.90;;;8.00;;
64674;SDS011;51090;51.512;11.332;2022-07-31T08:05:33;10.18;;;8.50;;
64674;SDS011;51090;51.512;11.332;2022-07-31T08:07:59;7.93;;;7.13;;
64674;SDS011;51090;51.512;11.332;2022-07-31T08:10:25;8.00;;;6.65;;
64674;SDS011;51090;51.512;11.332;2022-07-31T08:12:51;10.52;;;6.45;;
64674;SDS011;51090;51.512;11.332;2022-07-31T08:15:18;11.02;;;6.45;;
64674;SDS011;51090;51.512;11.332;2022-07-31T08:17:44;12.15;;;6.55;;
64674;SDS011;51090;51.512;11.332;2022-07-31T08:20:10;8.90;;;5.75;;
64674;SDS011;51090;51.512;11.332;2022-07-31T08:22:36;8.82;;;6.82;;
64674;SDS011;51090;51.512;11.332;2022-07-31T08:25:02;6.70;;;5.90;;
64674;SDS011;51090;51.512;11.332;2022-07-31T08:27:29;8.82;;;6.60;;
64674;SDS011;51090;51.512;11.332;2022-07-31T08:29:55;9.90;;;6.35;;
64674;SDS011;51090;51.512;11.332;2022-07-31T08:32:24;8.52;;;6.60;;
64674;SDS011;51090;51.512;11.332;2022-07-31T08:34:51;8.38;;;5.93;;
64674;SDS011;51090;51.512;11.332;2022-07-31T08:37:18;11.23;;;7.15;;
64674;SDS011;51090;51.512;11.332;2022-07-31T08:39:44;8.80;;;6.13;;
64674;SDS011;51090;51.512;11.332;2022-07-31T08:42:12;10.50;;;6.80;;
64674;SDS011;51090;51.512;11.332;2022-07-31T08:44:39;10.65;;;6.85;;
64674;SDS011;51090;51.512;11.332;2022-07-31T08:47:07;9.55;;;6.18;;
64674;SDS011;51090;51.512;11.332;2022-07-31T08:49:35;9.25;;;5.90;;
64674;SDS011;51090;51.512;11.332;2022-07-31T08:52:08;6.18;;;4.88;;
64674;SDS011;51090;51.512;11.332;2022-07-31T08:54:35;11.30;;;5.55;;
64674;SDS011;51090;51.512;11.332;2022-07-31T08:57:06;10.50;;;5.95;;
64674;SDS011;51090;51.512;11.332;2022-07-31T08:59:33;7.40;;;5.68;;
64674;SDS011;51090;51.512;11.332;2022-07-31T09:02:01;8.73;;;5.25;;
64674;SDS011;51090;51.512;11.332;2022-07-31T09:04:29;7.78;;;5.65;;
64674;SDS011;51090;51.512;11.332;2022-07-31T09:06:55;10.60;;;5.57;;
64674;SDS011;51090;51.512;11.332;2022-07-31T09:09:24;7.35;;;4.72;;
64674;SDS011;51090;51.512;11.332;2022-07-31T09:11:51;9.55;;;5.72;;
64674;SDS011;51090;51.512;11.332;2022-07-31T09:14:27;7.78;;;4.93;;
64674;SDS011;51090;51.512;11.332;2022-07-31T09:16:54;8.63;;;3.63;;
64674;SDS011;51090;51.512;11.332;2022-07-31T09:19:33;5.60;;;3.38;;
64674;SDS011;51090;51.512;11.332;2022-07-31T09:22:01;5.78;;;3.83;;
64674;SDS011;51090;51.512;11.332;2022-07-31T09:24:28;9.93;;;4.38;;
64674;SDS011;51090;51.512;11.332;2022-07-31T09:27:03;17.63;;;10.18;;
64674;SDS011;51090;51.512;11.332;2022-07-31T09:32:14;5.68;;;2.72;;
64674;SDS011;51090;51.512;11.332;2022-07-31T09:34:44;7.40;;;3.05;;
64674;SDS011;51090;51.512;11.332;2022-07-31T09:37:16;3.05;;;1.90;;
64674;SDS011;51090;51.512;11.332;2022-07-31T09:39:48;4.28;;;1.70;;
64674;SDS011;51090;51.512;11.332;2022-07-31T09:42:15;3.38;;;1.50;;
64674;SDS011;51090;51.512;11.332;2022-07-31T09:44:43;5.53;;;2.08;;
64674;SDS011;51090;51.512;11.332;2022-07-31T09:47:20;5.43;;;1.98;;
64674;SDS011;51090;51.512;11.332;2022-07-31T09:49:57;7.03;;;2.42;;
64674;SDS011;51090;51.512;11.332;2022-07-31T09:52:26;4.68;;;2.10;;
64674;SDS011;51090;51.512;11.332;2022-07-31T09:57:36;4.35;;;1.25;;
64674;SDS011;51090;51.512;11.332;2022-07-31T10:00:08;7.82;;;2.70;;
64674;SDS011;51090;51.512;11.332;2022-07-31T10:02:36;3.67;;;1.67;;
64674;SDS011;51090;51.512;11.332;2022-07-31T10:05:03;4.30;;;1.50;;
64674;SDS011;51090;51.512;11.332;2022-07-31T10:07:30;4.00;;;1.52;;
64674;SDS011;51090;51.512;11.332;2022-07-31T10:10:00;8.25;;;1.92;;
64674;SDS011;51090;51.512;11.332;2022-07-31T10:12:29;4.38;;;1.50;;
64674;SDS011;51090;51.512;11.332;2022-07-31T10:14:58;3.72;;;1.23;;
64674;SDS011;51090;51.512;11.332;2022-07-31T10:19:57;4.28;;;1.05;;
64674;SDS011;51090;51.512;11.332;2022-07-31T10:22:29;2.53;;;1.02;;
64674;SDS011;51090;51.512;11.332;2022-07-31T10:25:00;1.65;;;0.98;;
64674;SDS011;51090;51.512;11.332;2022-07-31T10:27:29;4.53;;;1.67;;
64674;SDS011;51090;51.512;11.332;2022-07-31T10:29:57;4.22;;;1.30;;
64674;SDS011;51090;51.512;11.332;2022-07-31T10:32:23;5.05;;;1.63;;
64674;SDS011;51090;51.512;11.332;2022-07-31T10:34:50;3.38;;;1.92;;
64674;SDS011;51090;51.512;11.332;2022-07-31T10:37:21;3.13;;;1.58;;
64674;SDS011;51090;51.512;11.332;2022-07-31T10:42:51;4.32;;;2.53;;
64674;SDS011;51090;51.512;11.332;2022-07-31T10:45:44;2.35;;;1.10;;
64674;SDS011;51090;51.512;11.332;2022-07-31T10:48:11;2.67;;;1.10;;
64674;SDS011;51090;51.512;11.332;2022-07-31T10:50:37;2.78;;;1.30;;
64674;SDS011;51090;51.512;11.332;2022-07-31T10:53:07;2.63;;;1.20;;
64674;SDS011;51090;51.512;11.332;2022-07-31T10:55:37;2.25;;;1.55;;
64674;SDS011;51090;51.512;11.332;2022-07-31T10:58:07;3.17;;;1.40;;
64674;SDS011;51090;51.512;11.332;2022-07-31T11:00:38;6.90;;;1.48;;
64674;SDS011;51090;51.512;11.332;2022-07-31T11:03:14;1.80;;;1.10;;
64674;SDS011;51090;51.512;11.332;2022-07-31T11:05:54;3.22;;;1.58;;
64674;SDS011;51090;51.512;11.332;2022-07-31T11:08:22;2.85;;;1.20;;
64674;SDS011;51090;51.512;11.332;2022-07-31T11:10:48;2.78;;;1.25;;
64674;SDS011;51090;51.512;11.332;2022-07-31T11:13:16;3.58;;;1.50;;
64674;SDS011;51090;51.512;11.332;2022-07-31T11:15:42;1.55;;;1.10;;
64674;SDS011;51090;51.512;11.332;2022-07-31T11:18:12;1.65;;;1.08;;
64674;SDS011;51090;51.512;11.332;2022-07-31T11:20:43;3.05;;;1.40;;
64674;SDS011;51090;51.512;11.332;2022-07-31T11:23:14;2.78;;;1.10;;
64674;SDS011;51090;51.512;11.332;2022-07-31T11:25:41;4.43;;;1.27;;
64674;SDS011;51090;51.512;11.332;2022-07-31T11:28:13;4.15;;;1.20;;
64674;SDS011;51090;51.512;11.332;2022-07-31T11:33:26;3.33;;;0.90;;
64674;SDS011;51090;51.512;11.332;2022-07-31T11:36:08;2.58;;;0.73;;
64674;SDS011;51090;51.512;11.332;2022-07-31T11:38:46;1.60;;;0.82;;
64674;SDS011;51090;51.512;11.332;2022-07-31T11:41:14;1.60;;;0.93;;
64674;SDS011;51090;51.512;11.332;2022-07-31T11:43:44;3.03;;;1.10;;
64674;SDS011;51090;51.512;11.332;2022-07-31T11:46:12;2.90;;;1.00;;
64674;SDS011;51090;51.512;11.332;2022-07-31T11:48:58;2.40;;;1.00;;
64674;SDS011;51090;51.512;11.332;2022-07-31T11:51:25;3.90;;;1.33;;
64674;SDS011;51090;51.512;11.332;2022-07-31T11:53:52;2.33;;;1.08;;
64674;SDS011;51090;51.512;11.332;2022-07-31T11:56:23;2.38;;;1.10;;
64674;SDS011;51090;51.512;11.332;2022-07-31T11:58:52;2.13;;;1.13;;
64674;SDS011;51090;51.512;11.332;2022-07-31T12:01:23;8.88;;;3.95;;
64674;SDS011;51090;51.512;11.332;2022-07-31T12:03:51;9.07;;;4.07;;
64674;SDS011;51090;51.512;11.332;2022-07-31T12:06:18;3.65;;;1.88;;
64674;SDS011;51090;51.512;11.332;2022-07-31T12:08:45;3.28;;;1.73;;
64674;SDS011;51090;51.512;11.332;2022-07-31T12:11:12;3.45;;;1.33;;
64674;SDS011;51090;51.512;11.332;2022-07-31T12:13:43;2.10;;;1.17;;
64674;SDS011;51090;51.512;11.332;2022-07-31T12:16:11;5.55;;;1.08;;
64674;SDS011;51090;51.512;11.332;2022-07-31T12:21:12;1.83;;;1.00;;
64674;SDS011;51090;51.512;11.332;2022-07-31T12:23:40;2.42;;;1.27;;
64674;SDS011;51090;51.512;11.332;2022-07-31T12:26:13;1.85;;;1.30;;
64674;SDS011;51090;51.512;11.332;2022-07-31T12:28:57;2.47;;;1.35;;
64674;SDS011;51090;51.512;11.332;2022-07-31T12:31:41;1.50;;;1.13;;
64674;SDS011;51090;51.512;11.332;2022-07-31T12:34:08;2.25;;;1.30;;
64674;SDS011;51090;51.512;11.332;2022-07-31T12:36:34;5.65;;;1.45;;
64674;SDS011;51090;51.512;11.332;2022-07-31T12:39:01;6.65;;;1.48;;
64674;SDS011;51090;51.512;11.332;2022-07-31T12:41:30;5.43;;;1.85;;
64674;SDS011;51090;51.512;11.332;2022-07-31T12:44:11;7.00;;;2.85;;
64674;SDS011;51090;51.512;11.332;2022-07-31T12:46:38;4.28;;;1.75;;
64674;SDS011;51090;51.512;11.332;2022-07-31T12:49:04;2.13;;;1.20;;
64674;SDS011;51090;51.512;11.332;2022-07-31T12:51:32;2.95;;;1.00;;
64674;SDS011;51090;51.512;11.332;2022-07-31T12:54:00;2.10;;;1.30;;
64674;SDS011;51090;51.512;11.332;2022-07-31T12:56:28;5.28;;;1.52;;
64674;SDS011;51090;51.512;11.332;2022-07-31T12:58:57;2.95;;;1.45;;
64674;SDS011;51090;51.512;11.332;2022-07-31T13:01:26;2.08;;;1.10;;
64674;SDS011;51090;51.512;11.332;2022-07-31T13:03:52;2.60;;;1.20;;
64674;SDS011;51090;51.512;11.332;2022-07-31T13:06:20;2.85;;;1.40;;
64674;SDS011;51090;51.512;11.332;2022-07-31T13:08:47;3.65;;;1.10;;
64674;SDS011;51090;51.512;11.332;2022-07-31T13:11:13;1.10;;;0.80;;
64674;SDS011;51090;51.512;11.332;2022-07-31T13:13:39;1.90;;;1.08;;
64674;SDS011;51090;51.512;11.332;2022-07-31T13:16:05;1.45;;;0.90;;
64674;SDS011;51090;51.512;11.332;2022-07-31T13:18:31;1.65;;;0.90;;
64674;SDS011;51090;51.512;11.332;2022-07-31T13:20:59;1.95;;;0.98;;
64674;SDS011;51090;51.512;11.332;2022-07-31T13:23:26;1.83;;;1.30;;
64674;SDS011;51090;51.512;11.332;2022-07-31T13:25:52;2.50;;;1.30;;
64674;SDS011;51090;51.512;11.332;2022-07-31T13:28:18;2.45;;;1.02;;
64674;SDS011;51090;51.512;11.332;2022-07-31T13:30:44;2.58;;;1.10;;
64674;SDS011;51090;51.512;11.332;2022-07-31T13:33:10;2.15;;;1.10;;
64674;SDS011;51090;51.512;11.332;2022-07-31T13:35:36;1.55;;;1.02;;
64674;SDS011;51090;51.512;11.332;2022-07-31T13:38:02;2.65;;;1.30;;
64674;SDS011;51090;51.512;11.332;2022-07-31T13:40:28;2.30;;;1.10;;
64674;SDS011;51090;51.512;11.332;2022-07-31T13:43:13;2.45;;;1.23;;
64674;SDS011;51090;51.512;11.332;2022-07-31T13:45:39;2.00;;;1.33;;
64674;SDS011;51090;51.512;11.332;2022-07-31T13:48:06;1.50;;;1.00;;
64674;SDS011;51090;51.512;11.332;2022-07-31T13:50:32;2.50;;;1.25;;
64674;SDS011;51090;51.512;11.332;2022-07-31T13:52:58;3.80;;;1.75;;
64674;SDS011;51090;51.512;11.332;2022-07-31T13:55:24;2.50;;;1.17;;
64674;SDS011;51090;51.512;11.332;2022-07-31T13:57:50;1.77;;;1.20;;
64674;SDS011;51090;51.512;11.332;2022-07-31T14:00:17;2.20;;;1.33;;
64674;SDS011;51090;51.512;11.332;2022-07-31T14:02:43;4.18;;;1.38;;
64674;SDS011;51090;51.512;11.332;2022-07-31T14:05:10;2.03;;;1.20;;
64674;SDS011;51090;51.512;11.332;2022-07-31T14:07:37;2.90;;;1.30;;
64674;SDS011;51090;51.512;11.332;2022-07-31T14:10:03;3.53;;;1.20;;
64674;SDS011;51090;51.512;11.332;2022-07-31T14:12:30;4.18;;;1.52;;
64674;SDS011;51090;51.512;11.332;2022-07-31T14:14:56;2.42;;;1.30;;
64674;SDS011;51090;51.512;11.332;2022-07-31T14:17:22;1.88;;;1.17;;
64674;SDS011;51090;51.512;11.332;2022-07-31T14:19:48;2.10;;;1.30;;
64674;SDS011;51090;51.512;11.332;2022-07-31T14:22:14;13.18;;;1.80;;
64674;SDS011;51090;51.512;11.332;2022-07-31T14:24:41;3.20;;;1.70;;
64674;SDS011;51090;51.512;11.332;2022-07-31T14:27:07;2.40;;;1.00;;
64674;SDS011;51090;51.512;11.332;2022-07-31T14:29:33;3.17;;;1.23;;
64674;SDS011;51090;51.512;11.332;2022-07-31T14:31:59;6.47;;;2.00;;
64674;SDS011;51090;51.512;11.332;2022-07-31T14:34:25;4.03;;;2.13;;
64674;SDS011;51090;51.512;11.332;2022-07-31T14:36:51;5.13;;;1.70;;
64674;SDS011;51090;51.512;11.332;2022-07-31T14:39:17;2.22;;;1.40;;
64674;SDS011;51090;51.512;11.332;2022-07-31T14:41:43;7.60;;;1.73;;
64674;SDS011;51090;51.512;11.332;2022-07-31T14:44:09;1.98;;;1.58;;
64674;SDS011;51090;51.512;11.332;2022-07-31T14:46:35;3.10;;;1.77;;
64674;SDS011;51090;51.512;11.332;2022-07-31T14:49:01;3.08;;;1.40;;
64674;SDS011;51090;51.512;11.332;2022-07-31T14:51:28;2.53;;;1.70;;
64674;SDS011;51090;51.512;11.332;2022-07-31T14:53:54;4.35;;;1.70;;
64674;SDS011;51090;51.512;11.332;2022-07-31T14:56:20;5.78;;;1.58;;